createdAt,value
2023-04-09T00:02:22.760Z,11.43
2023-04-09T00:04:52.790Z,10.88
2023-04-09T00:07:21.101Z,11.52
2023-04-09T00:09:49.267Z,11.00
2023-04-09T00:12:17.463Z,9.65
2023-04-09T00:14:45.696Z,11.32
2023-04-09T00:17:13.918Z,11.85
2023-04-09T00:19:42.011Z,10.77
2023-04-09T00:22:12.132Z,10.98
2023-04-09T00:24:40.615Z,10.93
2023-04-09T00:27:08.882Z,11.95
2023-04-09T00:29:37.145Z,11.50
2023-04-09T00:32:05.421Z,11.60
2023-04-09T00:34:33.640Z,10.38
2023-04-09T00:37:01.876Z,10.93
2023-04-09T00:39:31.549Z,11.10
2023-04-09T00:42:01.071Z,11.35
2023-04-09T00:44:29.358Z,10.63
2023-04-09T00:46:59.072Z,11.00
2023-04-09T00:49:27.588Z,11.07
2023-04-09T00:51:55.894Z,10.10
2023-04-09T00:54:24.514Z,11.40
2023-04-09T00:56:54.470Z,10.52
2023-04-09T00:59:26.046Z,8.82
2023-04-09T01:01:54.768Z,9.93
2023-04-09T01:04:23.981Z,8.70
2023-04-09T01:06:55.095Z,8.57
2023-04-09T01:09:32.092Z,8.93
2023-04-09T01:12:13.386Z,8.82
2023-04-09T01:14:50.834Z,9.63
2023-04-09T01:17:26.175Z,9.80
2023-04-09T01:20:03.956Z,9.02
2023-04-09T01:22:40.321Z,10.15
2023-04-09T01:25:19.238Z,9.18
2023-04-09T01:27:57.570Z,9.10
2023-04-09T01:30:29.372Z,10.30
2023-04-09T01:32:59.928Z,10.32
2023-04-09T01:35:30.056Z,10.50
2023-04-09T01:37:59.601Z,8.00
2023-04-09T01:40:27.855Z,8.35
2023-04-09T01:42:56.848Z,8.80
2023-04-09T01:45:27.130Z,10.23
2023-04-09T01:47:57.546Z,8.13
2023-04-09T01:50:25.981Z,9.35
2023-04-09T01:52:54.249Z,9.27
2023-04-09T01:55:22.521Z,8.65
2023-04-09T01:57:50.712Z,8.35
2023-04-09T02:00:19.011Z,8.70
2023-04-09T02:02:56.638Z,9.02
2023-04-09T02:05:29.971Z,9.00
2023-04-09T02:07:59.936Z,8.65
2023-04-09T02:10:31.980Z,9.23
2023-04-09T02:13:03.266Z,9.05
2023-04-09T02:15:35.729Z,10.18
2023-04-09T02:18:05.555Z,9.63
2023-04-09T02:20:34.909Z,10.10
2023-04-09T02:23:03.177Z,10.45
2023-04-09T02:25:31.489Z,9.20
2023-04-09T02:27:59.723Z,9.00
2023-04-09T02:30:30.844Z,10.85
2023-04-09T02:32:59.706Z,10.18
2023-04-09T02:35:32.378Z,10.55
2023-04-09T02:38:00.879Z,9.98
2023-04-09T02:40:29.296Z,9.68
2023-04-09T02:42:57.567Z,8.90
2023-04-09T02:45:25.748Z,10.10
2023-04-09T02:47:54.052Z,10.07
2023-04-09T02:50:22.762Z,9.88
2023-04-09T02:52:52.749Z,10.75
2023-04-09T02:55:21.479Z,10.43
2023-04-09T02:57:49.685Z,10.88
2023-04-09T03:00:17.913Z,10.20
2023-04-09T03:02:46.262Z,10.10
2023-04-09T03:05:15.121Z,9.82
2023-04-09T03:07:47.457Z,10.82
2023-04-09T03:10:21.071Z,10.00
2023-04-09T03:12:49.229Z,9.50
2023-04-09T03:15:17.329Z,10.63
2023-04-09T03:17:45.463Z,10.60
2023-04-09T03:20:13.769Z,9.85
2023-04-09T03:22:42.037Z,11.43
2023-04-09T03:25:11.195Z,9.85
2023-04-09T03:27:40.968Z,10.00
2023-04-09T03:30:10.318Z,10.18
2023-04-09T03:32:38.605Z,10.73
2023-04-09T03:35:07.409Z,9.85
2023-04-09T03:37:35.914Z,10.20
2023-04-09T03:40:04.299Z,9.65
2023-04-09T03:42:32.434Z,10.57
2023-04-09T03:45:02.389Z,11.00
2023-04-09T03:47:30.683Z,10.10
2023-04-09T03:49:59.358Z,10.88
2023-04-09T03:52:27.644Z,9.63
2023-04-09T03:54:56.076Z,12.10
2023-04-09T03:57:24.257Z,11.38
2023-04-09T03:59:52.517Z,10.15
2023-04-09T04:02:22.369Z,10.70
2023-04-09T04:04:50.788Z,11.10
2023-04-09T04:07:18.924Z,10.88
2023-04-09T04:09:47.046Z,10.27
2023-04-09T04:12:15.401Z,11.23
2023-04-09T04:14:43.613Z,10.88
2023-04-09T04:17:12.398Z,10.90
2023-04-09T04:19:42.059Z,9.82
2023-04-09T04:22:10.206Z,11.05
2023-04-09T04:24:38.396Z,9.70
2023-04-09T04:27:06.895Z,9.63
2023-04-09T04:29:35.085Z,11.68
2023-04-09T04:32:03.304Z,11.52
2023-04-09T04:34:31.487Z,11.18
2023-04-09T04:37:01.116Z,9.38
2023-04-09T04:39:29.523Z,11.00
2023-04-09T04:41:58.109Z,10.90
2023-04-09T04:44:26.344Z,11.25
2023-04-09T04:46:54.516Z,11.45
2023-04-09T04:49:22.734Z,11.10
2023-04-09T04:51:50.912Z,10.48
2023-04-09T04:54:20.680Z,10.23
2023-04-09T04:56:48.905Z,10.48
2023-04-09T04:59:17.237Z,10.77
2023-04-09T05:01:45.529Z,9.88
2023-04-09T05:04:13.673Z,10.93
2023-04-09T05:06:41.889Z,10.90
2023-04-09T05:09:10.063Z,9.73
2023-04-09T05:11:39.892Z,12.65
2023-04-09T05:14:08.134Z,12.07
2023-04-09T05:16:36.946Z,10.63
2023-04-09T05:19:05.302Z,11.07
2023-04-09T05:21:33.648Z,13.15
2023-04-09T05:24:02.078Z,10.00
2023-04-09T05:26:30.476Z,10.98
2023-04-09T05:29:00.121Z,12.70
2023-04-09T05:31:28.511Z,10.60
2023-04-09T05:33:56.636Z,12.15
2023-04-09T05:36:24.896Z,11.77
2023-04-09T05:38:53.110Z,11.80
2023-04-09T05:41:21.432Z,12.57
2023-04-09T05:43:49.735Z,11.13
2023-04-09T05:46:19.629Z,12.82
2023-04-09T05:48:48.075Z,11.20
2023-04-09T05:51:17.173Z,10.85
2023-04-09T05:53:46.016Z,12.65
2023-04-09T05:56:17.510Z,12.02
2023-04-09T05:58:45.985Z,13.00
2023-04-09T06:01:14.128Z,11.43
2023-04-09T06:03:44.380Z,11.35
2023-04-09T06:06:13.043Z,12.23
2023-04-09T06:08:41.727Z,13.43
2023-04-09T06:11:11.166Z,11.50
2023-04-09T06:13:40.281Z,11.75
2023-04-09T06:16:09.594Z,11.85
2023-04-09T06:18:42.629Z,12.45
2023-04-09T06:21:13.594Z,11.63
2023-04-09T06:23:42.028Z,11.40
2023-04-09T06:26:10.510Z,10.88
2023-04-09T06:28:38.928Z,10.18
2023-04-09T06:31:07.427Z,11.57
2023-04-09T06:33:35.748Z,10.95
2023-04-09T06:36:03.996Z,11.98
2023-04-09T06:38:33.675Z,11.60
2023-04-09T06:41:01.928Z,11.32
2023-04-09T06:43:30.049Z,12.25
2023-04-09T06:45:58.402Z,12.88
2023-04-09T06:48:26.784Z,12.88
2023-04-09T06:50:54.978Z,12.27
2023-04-09T06:53:23.360Z,12.60
2023-04-09T06:55:54.433Z,14.32
2023-04-09T06:58:23.679Z,14.18
2023-04-09T07:00:51.947Z,15.65
2023-04-09T07:03:20.455Z,13.90
2023-04-09T07:05:48.825Z,15.40
2023-04-09T07:08:17.087Z,15.07
2023-04-09T07:10:47.361Z,13.95
2023-04-09T07:13:17.385Z,13.13
2023-04-09T07:15:45.796Z,12.52
2023-04-09T07:18:14.060Z,14.60
2023-04-09T07:20:42.391Z,13.48
2023-04-09T07:23:10.650Z,14.30
2023-04-09T07:25:39.034Z,13.77
2023-04-09T07:28:07.420Z,12.63
2023-04-09T07:30:37.073Z,14.75
2023-04-09T07:33:05.360Z,13.68
2023-04-09T07:35:34.949Z,13.63
2023-04-09T07:38:03.116Z,16.30
2023-04-09T07:40:31.593Z,15.43
2023-04-09T07:43:00.035Z,13.88
2023-04-09T07:45:28.161Z,14.18
2023-04-09T07:47:58.022Z,14.60
2023-04-09T07:50:26.239Z,13.98
2023-04-09T07:52:54.494Z,14.48
2023-04-09T07:55:22.885Z,15.63
2023-04-09T07:57:51.789Z,14.48
2023-04-09T08:00:20.886Z,14.02
2023-04-09T08:02:49.357Z,15.43
2023-04-09T08:05:22.337Z,14.55
2023-04-09T08:07:52.710Z,14.18
2023-04-09T08:10:21.035Z,13.55
2023-04-09T08:12:50.029Z,14.50
2023-04-09T08:15:18.264Z,13.30
2023-04-09T08:17:46.499Z,14.48
2023-04-09T08:22:46.925Z,14.35
2023-04-09T08:25:16.417Z,15.45
2023-04-09T08:27:44.623Z,14.68
2023-04-09T08:30:13.811Z,13.18
2023-04-09T08:32:42.090Z,13.88
2023-04-09T08:35:11.244Z,15.07
2023-04-09T08:37:39.736Z,13.93
2023-04-09T08:40:11.719Z,14.48
2023-04-09T08:42:45.935Z,16.10
2023-04-09T08:45:14.850Z,14.35
2023-04-09T08:47:43.986Z,15.75
2023-04-09T08:50:12.741Z,16.63
2023-04-09T08:52:41.732Z,12.77
2023-04-09T08:55:13.580Z,12.65
2023-04-09T08:57:42.788Z,13.18
2023-04-09T09:00:11.897Z,12.88
2023-04-09T09:02:40.475Z,12.57
2023-04-09T09:05:09.214Z,12.23
2023-04-09T09:07:37.455Z,14.38
2023-04-09T09:10:06.140Z,13.60
2023-04-09T09:12:38.237Z,10.73
2023-04-09T09:15:07.840Z,10.32
2023-04-09T09:17:54.390Z,10.00
2023-04-09T09:20:23.908Z,9.05
2023-04-09T09:22:54.863Z,7.93
2023-04-09T09:25:25.920Z,8.40
2023-04-09T09:27:57.363Z,9.05
2023-04-09T09:30:27.031Z,8.65
2023-04-09T09:32:55.847Z,8.45
2023-04-09T09:35:24.530Z,8.13
2023-04-09T09:38:04.490Z,7.80
2023-04-09T09:40:32.767Z,7.90
2023-04-09T09:43:02.535Z,8.15
2023-04-09T09:45:31.556Z,8.00
2023-04-09T09:47:59.898Z,9.10
2023-04-09T09:50:31.635Z,8.02
2023-04-09T09:53:04.755Z,7.72
2023-04-09T09:55:34.844Z,8.00
2023-04-09T09:58:12.081Z,6.93
2023-04-09T10:00:41.973Z,10.40
2023-04-09T10:03:16.068Z,8.57
2023-04-09T10:05:46.065Z,8.18
2023-04-09T10:08:14.466Z,8.65
2023-04-09T10:10:43.625Z,9.55
2023-04-09T10:13:17.309Z,7.75
2023-04-09T10:15:46.918Z,8.35
2023-04-09T10:18:16.079Z,9.02
2023-04-09T10:20:52.163Z,9.02
2023-04-09T10:23:28.480Z,9.27
2023-04-09T10:25:56.602Z,9.15
2023-04-09T10:28:26.379Z,9.13
2023-04-09T10:30:55.635Z,9.18
2023-04-09T10:33:26.744Z,9.10
2023-04-09T10:35:55.786Z,9.10
2023-04-09T10:38:38.052Z,8.50
2023-04-09T10:41:11.450Z,8.00
2023-04-09T10:43:41.998Z,8.85
2023-04-09T10:46:27.900Z,9.57
2023-04-09T10:49:13.793Z,8.95
2023-04-09T10:51:45.218Z,8.05
2023-04-09T10:54:37.768Z,8.23
2023-04-09T10:57:15.024Z,7.80
2023-04-09T10:59:46.165Z,8.38
2023-04-09T11:03:00.117Z,8.82
2023-04-09T11:05:33.870Z,9.70
2023-04-09T11:08:10.835Z,11.43
2023-04-09T11:10:40.122Z,8.85
2023-04-09T11:13:08.390Z,10.25
2023-04-09T11:15:38.431Z,8.88
2023-04-09T11:18:10.076Z,8.02
2023-04-09T11:20:39.784Z,9.45
2023-04-09T11:23:08.564Z,8.85
2023-04-09T11:25:36.926Z,9.88
2023-04-09T11:28:06.884Z,8.82
2023-04-09T11:30:35.904Z,8.75
2023-04-09T11:33:05.847Z,9.40
2023-04-09T11:35:35.847Z,10.07
2023-04-09T11:38:08.003Z,9.48
2023-04-09T11:40:36.562Z,8.23
2023-04-09T11:43:04.939Z,8.25
2023-04-09T11:45:34.209Z,9.38
2023-04-09T11:48:05.756Z,10.02
2023-04-09T11:50:34.269Z,10.20
2023-04-09T11:53:02.608Z,9.93
2023-04-09T11:55:32.177Z,10.55
2023-04-09T11:58:04.328Z,7.57
2023-04-09T12:00:34.050Z,8.10
2023-04-09T12:03:04.235Z,8.13
2023-04-09T12:05:36.051Z,8.23
2023-04-09T12:08:06.265Z,7.63
2023-04-09T12:10:36.336Z,6.32
2023-04-09T12:13:06.821Z,5.78
2023-04-09T12:15:37.135Z,6.90
2023-04-09T12:18:08.922Z,6.43
2023-04-09T12:20:41.703Z,6.90
2023-04-09T12:23:11.411Z,7.18
2023-04-09T12:25:41.278Z,8.27
2023-04-09T12:28:10.911Z,8.18
2023-04-09T12:30:39.370Z,7.53
2023-04-09T12:33:10.795Z,7.70
2023-04-09T12:35:41.056Z,6.95
2023-04-09T12:38:09.761Z,8.07
2023-04-09T12:40:40.671Z,6.00
2023-04-09T12:43:08.854Z,6.70
2023-04-09T12:45:37.421Z,6.68
2023-04-09T12:48:06.081Z,7.15
2023-04-09T12:50:34.527Z,6.97
2023-04-09T12:53:04.216Z,7.78
2023-04-09T12:55:32.488Z,7.72
2023-04-09T12:58:02.571Z,8.25
2023-04-09T13:00:31.367Z,8.68
2023-04-09T13:02:59.936Z,8.98
2023-04-09T13:05:28.925Z,9.45
2023-04-09T13:07:57.292Z,10.13
2023-04-09T13:10:26.990Z,9.95
2023-04-09T13:12:55.229Z,8.82
2023-04-09T13:15:23.581Z,8.98
2023-04-09T13:17:51.863Z,8.60
2023-04-09T13:20:20.911Z,7.80
2023-04-09T13:22:49.499Z,8.50
2023-04-09T13:25:17.862Z,8.18
2023-04-09T13:27:47.480Z,8.25
2023-04-09T13:30:16.009Z,8.32
2023-04-09T13:32:44.287Z,9.30
2023-04-09T13:35:12.651Z,8.60
2023-04-09T13:37:41.117Z,9.13
2023-04-09T13:40:12.508Z,9.95
2023-04-09T13:42:40.973Z,10.32
2023-04-09T13:45:11.380Z,8.35
2023-04-09T13:47:39.704Z,10.13
2023-04-09T13:50:10.446Z,9.18
2023-04-09T13:52:38.690Z,8.70
2023-04-09T13:55:08.226Z,11.15
2023-04-09T13:57:36.596Z,11.05
2023-04-09T14:00:05.911Z,9.85
2023-04-09T14:02:35.898Z,8.65
2023-04-09T14:05:06.653Z,9.48
2023-04-09T14:07:34.762Z,11.13
2023-04-09T14:10:03.529Z,9.90
2023-04-09T14:12:31.756Z,10.55
2023-04-09T14:14:59.981Z,10.13
2023-04-09T14:17:28.459Z,9.95
2023-04-09T14:19:59.140Z,10.75
2023-04-09T14:22:30.025Z,9.80
2023-04-09T14:24:59.374Z,10.82
2023-04-09T14:27:27.710Z,9.63
2023-04-09T14:29:55.979Z,9.30
2023-04-09T14:32:24.224Z,8.85
2023-04-09T14:34:52.549Z,9.27
2023-04-09T14:37:22.227Z,7.07
2023-04-09T14:39:50.464Z,8.88
2023-04-09T14:42:19.125Z,8.32
2023-04-09T14:44:47.461Z,8.45
2023-04-09T14:47:16.184Z,9.43
2023-04-09T14:49:47.316Z,8.65
2023-04-09T14:52:18.133Z,7.15
2023-04-09T14:54:47.821Z,6.78
2023-04-09T14:57:16.210Z,7.85
2023-04-09T14:59:44.413Z,7.20
2023-04-09T15:02:12.671Z,7.78
2023-04-09T15:04:41.300Z,8.70
2023-04-09T15:07:09.520Z,9.25
2023-04-09T15:09:37.641Z,9.32
2023-04-09T15:12:09.022Z,9.07
2023-04-09T15:14:37.324Z,10.07
2023-04-09T15:17:05.537Z,9.02
2023-04-09T15:19:34.409Z,9.45
2023-04-09T15:22:02.690Z,9.40
2023-04-09T15:24:31.169Z,10.20
2023-04-09T15:26:59.574Z,8.13
2023-04-09T15:29:29.355Z,8.48
2023-04-09T15:31:57.753Z,8.15
2023-04-09T15:34:26.227Z,8.98
2023-04-09T15:36:54.776Z,9.43
2023-04-09T15:39:24.901Z,9.20
2023-04-09T15:41:53.119Z,9.10
2023-04-09T15:44:21.406Z,9.43
2023-04-09T15:46:51.190Z,8.73
2023-04-09T15:49:21.908Z,8.15
2023-04-09T15:51:50.356Z,8.63
2023-04-09T15:54:18.512Z,7.07
2023-04-09T15:56:46.935Z,9.27
2023-04-09T15:59:16.428Z,8.32
2023-04-09T16:01:44.623Z,8.40
2023-04-09T16:04:14.467Z,9.43
2023-04-09T16:06:42.845Z,8.70
2023-04-09T16:09:11.042Z,8.68
2023-04-09T16:11:39.295Z,8.52
2023-04-09T16:14:09.323Z,8.20
2023-04-09T16:16:37.973Z,9.02
2023-04-09T16:19:06.227Z,8.10
2023-04-09T16:21:36.118Z,9.88
2023-04-09T16:24:04.391Z,8.20
2023-04-09T16:26:32.604Z,8.43
2023-04-09T16:29:04.225Z,7.50
2023-04-09T16:31:32.608Z,7.50
2023-04-09T16:34:00.871Z,6.88
2023-04-09T16:36:29.269Z,6.88
2023-04-09T16:38:59.075Z,6.22
2023-04-09T16:41:27.239Z,8.15
2023-04-09T16:43:55.745Z,7.20
2023-04-09T16:46:24.037Z,6.93
2023-04-09T16:48:52.652Z,6.88
2023-04-09T16:51:21.367Z,7.38
2023-04-09T16:53:49.621Z,7.00
2023-04-09T16:56:21.879Z,6.15
2023-04-09T16:58:49.990Z,6.88
2023-04-09T17:01:18.240Z,7.47
2023-04-09T17:03:48.860Z,7.70
2023-04-09T17:06:17.072Z,7.22
2023-04-09T17:08:46.424Z,6.18
2023-04-09T17:11:16.456Z,7.20
2023-04-09T17:13:46.323Z,6.53
2023-04-09T17:16:15.555Z,6.63
2023-04-09T17:18:45.635Z,6.18
2023-04-09T17:21:13.855Z,7.57
2023-04-09T17:23:42.736Z,6.43
2023-04-09T17:26:10.966Z,6.45
2023-04-09T17:28:39.127Z,6.53
2023-04-09T17:31:16.074Z,7.57
2023-04-09T17:33:47.109Z,7.68
2023-04-09T17:36:15.452Z,7.35
2023-04-09T17:38:43.665Z,7.20
2023-04-09T17:41:12.071Z,8.35
2023-04-09T17:43:40.328Z,7.07
2023-04-09T17:46:08.874Z,7.10
2023-04-09T17:48:39.342Z,7.15
2023-04-09T17:51:08.416Z,7.15
2023-04-09T17:53:36.831Z,7.03
2023-04-09T17:56:05.747Z,7.07
2023-04-09T17:58:35.934Z,6.25
2023-04-09T18:01:08.368Z,6.90
2023-04-09T18:03:36.820Z,7.82
2023-04-09T18:06:08.147Z,7.40
2023-04-09T18:08:37.002Z,7.32
2023-04-09T18:11:12.146Z,7.55
2023-04-09T18:13:41.057Z,8.23
2023-04-09T18:16:10.508Z,8.25
2023-04-09T18:18:39.159Z,8.32
2023-04-09T18:21:09.179Z,8.27
2023-04-09T18:23:39.481Z,8.23
2023-04-09T18:26:07.833Z,6.88
2023-04-09T18:28:36.321Z,6.88
2023-04-09T18:31:04.569Z,6.88
2023-04-09T18:33:32.788Z,7.00
2023-04-09T18:36:01.915Z,6.80
2023-04-09T18:38:31.743Z,7.70
2023-04-09T18:41:01.344Z,6.75
2023-04-09T18:43:29.522Z,6.50
2023-04-09T18:45:58.313Z,6.47
2023-04-09T18:48:26.702Z,6.03
2023-04-09T18:50:54.936Z,6.55
2023-04-09T18:53:23.151Z,7.80
2023-04-09T18:55:52.786Z,7.45
2023-04-09T18:58:21.484Z,6.80
2023-04-09T19:00:51.723Z,7.88
2023-04-09T19:03:20.678Z,7.47
2023-04-09T19:05:49.728Z,7.88
2023-04-09T19:08:17.939Z,8.68
2023-04-09T19:10:47.629Z,8.02
2023-04-09T19:13:18.425Z,8.23
2023-04-09T19:15:46.876Z,9.95
2023-04-09T19:18:15.046Z,8.82
2023-04-09T19:20:43.327Z,9.45
2023-04-09T19:23:11.667Z,8.88
2023-04-09T19:25:39.898Z,8.77
2023-04-09T19:28:08.109Z,8.60
2023-04-09T19:30:37.855Z,8.65
2023-04-09T19:33:06.060Z,9.20
2023-04-09T19:35:35.840Z,10.52
2023-04-09T19:38:05.094Z,8.90
2023-04-09T19:40:33.822Z,8.57
2023-04-09T19:43:02.004Z,8.45
2023-04-09T19:45:30.393Z,9.43
2023-04-09T19:48:00.175Z,9.80
2023-04-09T19:50:28.495Z,10.45
2023-04-09T19:52:57.015Z,8.73
2023-04-09T19:55:25.304Z,8.27
2023-04-09T19:57:53.681Z,10.10
2023-04-09T20:00:21.969Z,9.43
2023-04-09T20:02:50.313Z,10.10
2023-04-09T20:05:21.147Z,8.27
2023-04-09T20:07:49.402Z,10.20
2023-04-09T20:10:17.994Z,9.20
2023-04-09T20:12:49.097Z,9.30
2023-04-09T20:15:20.146Z,8.07
2023-04-09T20:17:48.723Z,9.98
2023-04-09T20:20:20.386Z,9.75
2023-04-09T20:22:56.432Z,10.30
2023-04-09T20:25:25.140Z,9.48
2023-04-09T20:27:54.605Z,7.85
2023-04-09T20:30:23.030Z,10.18
2023-04-09T20:32:51.270Z,8.18
2023-04-09T20:35:19.659Z,7.82
2023-04-09T20:37:50.052Z,9.10
2023-04-09T20:40:20.740Z,8.30
2023-04-09T20:42:49.013Z,8.20
2023-04-09T20:45:17.219Z,7.90
2023-04-09T20:47:45.614Z,9.30
2023-04-09T20:50:16.648Z,8.57
2023-04-09T20:52:44.889Z,8.88
2023-04-09T20:55:14.784Z,8.57
2023-04-09T20:57:45.489Z,8.73
2023-04-09T21:00:14.961Z,9.25
2023-04-09T21:02:43.346Z,8.90
2023-04-09T21:05:22.520Z,8.82
2023-04-09T21:07:52.209Z,9.73
2023-04-09T21:10:21.983Z,8.32
2023-04-09T21:12:51.874Z,8.13
2023-04-09T21:15:20.430Z,7.95
2023-04-09T21:17:48.684Z,9.77
2023-04-09T21:20:17.161Z,8.93
2023-04-09T21:22:45.743Z,7.88
2023-04-09T21:25:15.358Z,9.38
2023-04-09T21:27:45.898Z,8.60
2023-04-09T21:30:14.178Z,10.07
2023-04-09T21:32:42.614Z,8.38
2023-04-09T21:35:11.382Z,8.18
2023-04-09T21:37:39.818Z,8.38
2023-04-09T21:40:09.681Z,9.98
2023-04-09T21:42:37.952Z,8.63
2023-04-09T21:45:08.540Z,8.75
2023-04-09T21:47:36.765Z,9.35
2023-04-09T21:50:05.346Z,9.73
2023-04-09T21:52:35.762Z,8.85
2023-04-09T21:55:04.052Z,8.18
2023-04-09T21:57:32.473Z,8.52
2023-04-09T22:00:00.799Z,9.60
2023-04-09T22:02:30.590Z,8.02
2023-04-09T22:05:01.116Z,8.68
2023-04-09T22:07:29.769Z,8.57
2023-04-09T22:09:58.607Z,8.35
2023-04-09T22:12:26.854Z,8.98
2023-04-09T22:14:55.421Z,7.93
2023-04-09T22:17:23.561Z,8.95
2023-04-09T22:19:53.303Z,9.10
2023-04-09T22:22:21.927Z,8.60
2023-04-09T22:24:50.209Z,8.60
2023-04-09T22:27:18.515Z,9.07
2023-04-09T22:29:46.868Z,8.65
2023-04-09T22:32:17.978Z,9.77
2023-04-09T22:34:46.618Z,9.20
2023-04-09T22:37:17.272Z,9.35
2023-04-09T22:39:45.491Z,8.95
2023-04-09T22:42:13.729Z,9.88
2023-04-09T22:44:42.037Z,9.27
2023-04-09T22:47:10.201Z,9.00
2023-04-09T22:49:38.730Z,9.40
2023-04-09T22:52:07.008Z,8.50
2023-04-09T22:54:40.796Z,9.50
2023-04-09T22:57:10.804Z,9.00
2023-04-09T22:59:40.751Z,8.77
2023-04-09T23:02:09.444Z,8.55
2023-04-09T23:04:37.801Z,8.23
2023-04-09T23:07:06.207Z,9.15
2023-04-09T23:09:34.410Z,9.32
2023-04-09T23:12:04.267Z,8.70
2023-04-09T23:14:32.528Z,9.35
2023-04-09T23:17:00.844Z,9.07
2023-04-09T23:19:29.132Z,8.75
2023-04-09T23:21:59.055Z,9.35
2023-04-09T23:24:27.312Z,7.57
2023-04-09T23:26:56.347Z,9.60
2023-04-09T23:29:26.390Z,7.90
2023-04-09T23:31:54.571Z,8.82
2023-04-09T23:34:22.788Z,9.95
2023-04-09T23:36:53.808Z,7.72
2023-04-09T23:39:22.330Z,9.25
2023-04-09T23:41:50.547Z,8.43
2023-04-09T23:44:18.696Z,9.00
2023-04-09T23:46:48.606Z,8.18
2023-04-09T23:49:16.922Z,10.07
2023-04-09T23:51:45.138Z,8.50
2023-04-09T23:54:13.849Z,9.10
2023-04-09T23:56:42.073Z,9.07
2023-04-09T23:59:13.040Z,8.68
